Time;durP1;ratioP1;P1;durP2;ratioP2;P2;SDS_P1;SDS_P2;PMS_P1;PMS_P2;Temp;Humidity;BMP_temperature;BMP_pressure;BME280_temperature;BME280_humidity;BME280_pressure;Samples;Min_cycle;Max_cycle;Signal;HPM_P1;HPM_P2
2021/12/06 00:08:06;;;;;;;0.20;0.10;;;5.40;99.90;;;;;;20488427;29;20372;-74
2021/12/06 00:18:11;;;;;;;0.20;0.10;;;5.80;99.90;;;;;;20497105;28;20248;-74
2021/12/06 00:28:14;;;;;;;0.20;0.10;;;5.50;99.90;;;;;;20489671;29;20237;-73
2021/12/06 00:38:19;;;;;;;0.20;0.10;;;5.40;99.90;;;;;;20479719;29;20228;-74
2021/12/06 00:48:23;;;;;;;0.20;0.10;;;5.60;99.90;;;;;;20479491;29;20228;-74
2021/12/06 00:58:28;;;;;;;0.20;0.10;;;5.90;99.90;;;;;;20495722;29;20203;-73
2021/12/06 01:08:31;;;;;;;0.20;0.10;;;5.50;99.90;;;;;;20478750;29;20328;-73
2021/12/06 01:18:37;;;;;;;0.20;0.10;;;5.30;99.90;;;;;;20494329;28;20669;-74
2021/12/06 01:39:16;;;;;;;0.20;0.10;;;3.80;99.90;;;;;;20429308;29;20228;-74
2021/12/06 01:49:22;;;;;;;0.20;0.10;;;4.00;99.90;;;;;;20444075;29;20279;-74
2021/12/06 01:59:27;;;;;;;0.20;0.10;;;3.90;99.90;;;;;;20427799;29;20295;-75
2021/12/06 02:09:31;;;;;;;0.20;0.10;;;4.00;99.90;;;;;;20427785;29;20281;-74
2021/12/06 02:19:42;;;;;;;0.20;0.00;;;4.00;99.90;;;;;;20427457;29;20289;-72
2021/12/06 02:29:51;;;;;;;0.20;0.10;;;4.60;99.90;;;;;;20430554;29;20570;-74
2021/12/06 02:39:55;;;;;;;0.20;0.10;;;4.90;99.90;;;;;;20487958;28;20189;-73
2021/12/06 02:50:06;;;;;;;0.20;0.10;;;4.40;99.90;;;;;;20509427;29;20737;-72
2021/12/06 03:00:11;;;;;;;0.20;0.10;;;3.90;99.90;;;;;;20529058;29;20204;-74
2021/12/06 03:10:18;;;;;;;0.20;0.10;;;3.90;99.90;;;;;;20514106;28;20233;-73
2021/12/06 03:20:23;;;;;;;0.20;0.10;;;5.10;99.90;;;;;;20504864;29;20659;-72
2021/12/06 03:30:34;;;;;;;0.20;0.10;;;5.80;99.90;;;;;;20471392;29;20340;-74
2021/12/06 03:40:37;;;;;;;0.20;0.10;;;5.70;99.90;;;;;;20467190;29;20534;-73
2021/12/06 03:50:42;;;;;;;0.20;0.10;;;4.90;99.90;;;;;;20482531;28;20595;-73
2021/12/06 04:00:46;;;;;;;0.20;0.00;;;4.00;99.90;;;;;;20486639;29;20221;-73
2021/12/06 04:10:55;;;;;;;0.20;0.10;;;4.90;99.90;;;;;;20498355;29;20648;-73
2021/12/06 04:21:05;;;;;;;0.20;0.10;;;3.90;99.90;;;;;;20481365;29;20661;-71
2021/12/06 04:31:10;;;;;;;0.20;0.10;;;3.70;99.90;;;;;;20497065;29;20239;-72
2021/12/06 04:41:14;;;;;;;0.20;0.10;;;3.90;99.90;;;;;;20479504;29;20216;-73
2021/12/06 04:51:19;;;;;;;0.20;0.10;;;4.80;99.90;;;;;;20462551;29;20229;-74
2021/12/06 05:01:28;;;;;;;0.20;0.10;;;4.70;99.90;;;;;;20482770;28;20224;-73
2021/12/06 05:11:33;;;;;;;0.20;0.10;;;5.20;99.90;;;;;;20497040;28;20224;-74
2021/12/06 05:21:37;;;;;;;0.20;0.10;;;5.60;99.90;;;;;;20497966;29;20626;-73
2021/12/06 05:31:42;;;;;;;0.20;0.10;;;5.70;99.90;;;;;;20509783;28;20627;-73
2021/12/06 05:41:46;;;;;;;0.20;0.10;;;5.20;99.90;;;;;;20524250;29;20535;-73
2021/12/06 05:51:51;;;;;;;0.20;0.10;;;6.10;99.90;;;;;;20497535;29;20256;-74
2021/12/06 06:01:55;;;;;;;0.20;0.00;;;6.00;99.90;;;;;;20524025;29;20225;-74
2021/12/06 06:12:02;;;;;;;0.20;0.10;;;5.70;99.90;;;;;;20516485;28;20224;-73
2021/12/06 06:22:06;;;;;;;0.20;0.10;;;5.50;99.90;;;;;;20523159;29;20201;-74
2021/12/06 06:32:11;;;;;;;0.20;0.10;;;5.20;99.90;;;;;;20534009;29;20236;-74
2021/12/06 06:42:15;;;;;;;0.20;0.10;;;5.00;99.90;;;;;;20503962;29;20228;-73
2021/12/06 06:52:21;;;;;;;0.20;0.10;;;5.10;99.90;;;;;;20508575;29;20613;-74
2021/12/06 07:02:24;;;;;;;0.20;0.10;;;5.30;99.90;;;;;;20502220;29;20705;-75
2021/12/06 07:12:30;;;;;;;0.20;0.10;;;5.10;99.90;;;;;;20502636;29;20702;-74
2021/12/06 07:22:34;;;;;;;0.20;0.10;;;5.00;99.90;;;;;;20500823;28;20220;-75
2021/12/06 07:32:39;;;;;;;0.20;0.00;;;5.20;99.90;;;;;;20486152;29;20596;-74
2021/12/06 07:42:43;;;;;;;0.20;0.10;;;5.60;99.90;;;;;;20500049;29;20363;-74
2021/12/06 07:52:49;;;;;;;0.20;0.10;;;6.10;99.90;;;;;;20499262;29;20230;-74
2021/12/06 08:02:52;;;;;;;0.20;0.00;;;6.10;99.90;;;;;;20498463;29;20220;-73
2021/12/06 08:12:58;;;;;;;0.20;0.10;;;6.60;99.90;;;;;;20480160;29;20228;-73
2021/12/06 08:23:01;;;;;;;0.20;0.10;;;7.20;99.90;;;;;;20497273;29;20205;-71
2021/12/06 08:33:07;;;;;;;0.20;0.10;;;7.90;99.90;;;;;;20495239;29;20254;-72
2021/12/06 08:43:16;;;;;;;0.20;0.10;;;8.10;99.90;;;;;;20495552;28;20280;-73
2021/12/06 08:53:24;;;;;;;0.20;0.10;;;8.30;99.90;;;;;;20496035;29;20239;-74
2021/12/06 09:03:30;;;;;;;0.20;0.10;;;8.30;99.90;;;;;;20496116;29;20722;-76
2021/12/06 09:13:42;;;;;;;0.20;0.00;;;8.50;99.90;;;;;;20494964;29;20229;-76
2021/12/06 09:23:46;;;;;;;0.20;0.10;;;8.80;99.90;;;;;;20478147;29;20197;-74
2021/12/06 09:33:54;;;;;;;0.20;0.00;;;9.10;99.90;;;;;;20477449;29;20585;-76
2021/12/06 09:44:00;;;;;;;0.20;0.10;;;9.60;99.90;;;;;;20492775;29;20227;-74
2021/12/06 09:54:07;;;;;;;0.20;0.10;;;10.00;99.90;;;;;;20504808;28;20316;-74
2021/12/06 10:04:15;;;;;;;0.20;0.10;;;10.50;99.90;;;;;;20507163;29;20204;-73
2021/12/06 10:14:21;;;;;;;3.33;3.03;;;11.20;99.90;;;;;;20505177;29;20220;-74
2021/12/06 10:24:31;;;;;;;0.20;0.10;;;11.90;99.90;;;;;;20506055;29;20236;-74
2021/12/06 10:34:36;;;;;;;0.20;0.10;;;12.70;99.90;;;;;;20504803;29;20233;-73
2021/12/06 10:44:51;;;;;;;0.20;0.00;;;13.70;99.90;;;;;;20507259;29;20216;-76
2021/12/06 10:54:56;;;;;;;0.20;0.10;;;13.90;99.90;;;;;;20503032;29;20224;-76
2021/12/06 11:04:59;;;;;;;0.20;0.10;;;14.80;99.90;;;;;;20503145;28;20284;-72
2021/12/06 11:15:12;;;;;;;0.20;0.10;;;14.40;99.90;;;;;;20493374;29;20248;-72
2021/12/06 11:25:16;;;;;;;0.20;0.10;;;15.10;99.90;;;;;;20498969;29;20313;-73
2021/12/06 11:35:24;;;;;;;0.20;0.10;;;15.80;99.90;;;;;;20499154;29;20336;-70
2021/12/06 11:45:33;;;;;;;0.20;0.10;;;16.00;99.90;;;;;;20511557;29;20207;-74
2021/12/06 11:55:47;;;;;;;0.20;0.10;;;17.00;99.90;;;;;;20516585;29;20540;-77
2021/12/06 12:05:51;;;;;;;0.20;0.10;;;16.10;99.90;;;;;;20514096;29;20203;-75
2021/12/06 12:15:58;;;;;;;0.20;0.10;;;15.50;99.90;;;;;;20507042;28;20217;-76
2021/12/06 12:26:10;;;;;;;0.20;0.10;;;15.00;99.90;;;;;;20501991;29;20189;-72
2021/12/06 12:36:18;;;;;;;0.20;0.10;;;15.60;99.90;;;;;;20494440;29;20236;-73
2021/12/06 12:46:23;;;;;;;0.20;0.03;;;17.00;99.90;;;;;;20494636;29;20248;-74
2021/12/06 12:56:32;;;;;;;0.20;0.00;;;17.90;99.90;;;;;;20494924;29;20235;-76
2021/12/06 13:06:37;;;;;;;0.20;0.10;;;17.90;99.90;;;;;;20494535;29;20619;-76
2021/12/06 13:16:48;;;;;;;0.20;0.10;;;17.80;99.90;;;;;;20487785;29;20228;-74
2021/12/06 13:26:54;;;;;;;0.20;0.10;;;18.60;99.90;;;;;;20504575;28;20626;-72
2021/12/06 13:37:00;;;;;;;0.20;0.10;;;17.10;99.90;;;;;;20508353;29;20315;-72
2021/12/06 13:47:10;;;;;;;0.20;0.03;;;14.90;99.90;;;;;;20507891;29;20216;-72
2021/12/06 13:57:16;;;;;;;0.20;0.10;;;14.70;99.90;;;;;;20523475;29;20357;-73
2021/12/06 14:07:22;;;;;;;0.20;0.10;;;15.30;99.90;;;;;;20490012;29;20610;-72
2021/12/06 14:17:27;;;;;;;0.20;0.00;;;19.00;99.90;;;;;;20503587;29;20228;-72
2021/12/06 14:27:36;;;;;;;0.20;0.10;;;18.70;99.90;;;;;;20504910;29;20205;-73
2021/12/06 14:37:41;;;;;;;0.20;0.10;;;19.40;99.90;;;;;;20499661;28;20303;-70
2021/12/06 14:47:53;;;;;;;0.20;0.10;;;17.10;99.90;;;;;;20503560;29;20193;-72
2021/12/06 14:58:00;;;;;;;0.20;0.10;;;17.00;99.90;;;;;;20483601;29;20291;-71
2021/12/06 15:08:06;;;;;;;0.20;0.10;;;17.30;99.90;;;;;;20484190;29;20557;-71
2021/12/06 15:18:14;;;;;;;0.20;0.10;;;15.50;99.90;;;;;;20484190;29;20239;-71
2021/12/06 15:28:21;;;;;;;0.20;0.10;;;14.60;99.90;;;;;;20480089;29;20247;-72
2021/12/06 15:38:29;;;;;;;0.20;0.10;;;14.20;99.90;;;;;;20478947;29;20236;-71
2021/12/06 15:48:38;;;;;;;0.20;0.07;;;13.60;99.90;;;;;;20496235;28;20224;-72
2021/12/06 15:58:44;;;;;;;0.20;0.10;;;12.60;99.90;;;;;;20494801;29;20208;-71
2021/12/06 16:08:50;;;;;;;0.20;0.10;;;12.10;99.90;;;;;;20476326;29;20706;-71
2021/12/06 16:18:56;;;;;;;0.20;0.10;;;11.60;99.90;;;;;;20493840;29;20202;-71
2021/12/06 16:29:03;;;;;;;0.20;0.10;;;11.20;99.90;;;;;;20493743;29;20328;-71
2021/12/06 16:39:28;;;;;;;0.20;0.10;;;11.10;99.90;;;;;;20492228;29;20299;-71
2021/12/06 16:49:37;;;;;;;0.20;0.10;;;10.70;99.90;;;;;;20475575;29;21040;-71
2021/12/06 16:59:44;;;;;;;0.20;0.10;;;10.50;99.90;;;;;;20473969;29;20220;-72
2021/12/06 17:09:48;;;;;;;0.20;0.10;;;10.40;99.90;;;;;;20491853;29;20224;-71
2021/12/06 17:19:54;;;;;;;0.20;0.10;;;10.40;99.90;;;;;;20491926;29;20197;-70
2021/12/06 17:29:58;;;;;;;0.20;0.10;;;10.20;99.90;;;;;;20490568;29;20261;-71
2021/12/06 17:40:05;;;;;;;0.20;0.10;;;9.90;99.90;;;;;;20489853;29;20205;-72
2021/12/06 17:50:09;;;;;;;0.20;0.10;;;9.90;99.90;;;;;;20490129;29;20224;-72
2021/12/06 18:00:14;;;;;;;0.20;0.10;;;10.00;99.90;;;;;;20507681;29;20694;-72
2021/12/06 18:10:19;;;;;;;3.77;3.40;;;9.50;99.90;;;;;;20496824;28;20225;-70
2021/12/06 18:20:24;;;;;;;0.20;0.10;;;9.60;99.90;;;;;;20496006;29;20297;-72
2021/12/06 18:30:27;;;;;;;0.20;0.10;;;9.40;99.90;;;;;;20511092;29;20250;-68
2021/12/06 18:40:41;;;;;;;0.20;0.00;;;9.50;99.90;;;;;;20412924;28;20241;-70
2021/12/06 18:50:46;;;;;;;0.20;0.10;;;9.20;99.90;;;;;;20506063;28;20693;-71
2021/12/06 19:00:52;;;;;;;0.20;0.10;;;9.10;99.90;;;;;;20499532;29;20201;-71
2021/12/06 19:11:00;;;;;;;0.20;0.17;;;9.20;99.90;;;;;;20499627;29;20323;-71
2021/12/06 19:21:05;;;;;;;0.20;0.20;;;9.00;99.90;;;;;;20481205;28;20223;-72
2021/12/06 19:31:09;;;;;;;0.20;0.10;;;8.60;99.90;;;;;;20499228;29;20328;-71
2021/12/06 19:41:17;;;;;;;0.30;0.30;;;8.40;99.90;;;;;;20497653;29;20197;-71
2021/12/06 19:51:24;;;;;;;0.20;0.10;;;8.30;99.90;;;;;;20496726;29;20224;-71
2021/12/06 20:01:29;;;;;;;0.20;0.00;;;8.20;99.90;;;;;;20495079;29;20205;-71
2021/12/06 20:11:33;;;;;;;0.20;0.10;;;8.30;99.90;;;;;;20495012;29;20225;-71
2021/12/06 20:21:38;;;;;;;0.20;0.03;;;8.30;99.90;;;;;;20492678;29;20201;-71
2021/12/06 20:31:42;;;;;;;0.20;0.10;;;8.40;99.90;;;;;;20486966;28;20739;-72
2021/12/06 20:41:48;;;;;;;0.20;0.03;;;8.30;99.90;;;;;;20493481;29;20193;-71
2021/12/06 20:51:52;;;;;;;0.20;0.00;;;8.30;99.90;;;;;;20493396;29;20256;-71
2021/12/06 21:01:57;;;;;;;0.20;0.10;;;8.20;99.90;;;;;;20479140;29;20315;-71
2021/12/06 21:12:07;;;;;;;0.20;0.10;;;7.90;99.90;;;;;;20504396;29;20598;-73
2021/12/06 21:22:12;;;;;;;0.20;0.00;;;7.70;99.90;;;;;;20493222;29;20205;-72
2021/12/06 21:32:16;;;;;;;0.20;0.00;;;7.60;99.90;;;;;;20491626;29;20236;-71
2021/12/06 21:42:21;;;;;;;0.20;0.00;;;7.70;99.90;;;;;;20492430;28;20205;-72
2021/12/06 21:52:24;;;;;;;0.20;0.00;;;7.10;99.90;;;;;;20505483;29;20262;-70
2021/12/06 22:02:29;;;;;;;0.20;0.10;;;7.20;99.90;;;;;;20503415;28;20231;-71
2021/12/06 22:12:33;;;;;;;0.20;0.00;;;7.00;99.90;;;;;;20486646;29;20220;-73
2021/12/06 22:22:39;;;;;;;0.20;0.10;;;7.20;99.90;;;;;;20504128;29;20201;-72
2021/12/06 22:32:44;;;;;;;0.20;0.00;;;6.80;99.90;;;;;;20502845;29;20323;-72
2021/12/06 22:42:49;;;;;;;0.20;0.00;;;6.80;99.90;;;;;;20501845;29;20197;-68
2021/12/06 22:52:53;;;;;;;0.20;0.10;;;7.30;99.90;;;;;;20503420;28;20229;-72
2021/12/06 23:02:59;;;;;;;0.20;0.00;;;7.10;99.90;;;;;;20502492;29;20189;-73
2021/12/06 23:13:03;;;;;;;0.20;0.10;;;7.50;99.90;;;;;;20501110;29;20690;-73
2021/12/06 23:23:08;;;;;;;0.20;0.10;;;7.50;99.90;;;;;;20501093;29;20280;-72
2021/12/06 23:33:13;;;;;;;0.20;0.10;;;7.80;99.90;;;;;;20500868;29;20332;-71
2021/12/06 23:53:39;;;;;;;0.20;0.10;;;7.50;99.90;;;;;;20499930;28;20311;-69
